sensor_id;sensor_type;location;lat;lon;timestamp;pressure;altitude;pressure_sealevel;temperature;humidity
46007;BME280;31738;50.188;8.524;2022-08-19T00:01:33;98376.34;;;21.69;73.93
46007;BME280;31738;50.188;8.524;2022-08-19T00:04:01;98377.13;;;21.69;73.96
46007;BME280;31738;50.188;8.524;2022-08-19T00:06:28;98377.91;;;21.70;74.05
46007;BME280;31738;50.188;8.524;2022-08-19T00:08:54;98383.72;;;21.68;74.33
46007;BME280;31738;50.188;8.524;2022-08-19T00:11:20;98389.63;;;21.70;73.79
46007;BME280;31738;50.188;8.524;2022-08-19T00:13:46;98387.69;;;21.71;74.38
46007;BME280;31738;50.188;8.524;2022-08-19T00:16:14;98390.41;;;21.71;73.91
46007;BME280;31738;50.188;8.524;2022-08-19T00:18:40;98391.22;;;21.71;73.61
46007;BME280;31738;50.188;8.524;2022-08-19T00:21:05;98377.91;;;21.70;73.34
46007;BME280;31738;50.188;8.524;2022-08-19T00:23:34;98378.78;;;21.74;73.21
46007;BME280;31738;50.188;8.524;2022-08-19T00:26:05;98381.19;;;21.75;73.07
46007;BME280;31738;50.188;8.524;2022-08-19T00:28:31;98389.38;;;21.75;73.00
46007;BME280;31738;50.188;8.524;2022-08-19T00:30:58;98382.78;;;21.76;73.58
46007;BME280;31738;50.188;8.524;2022-08-19T00:33:23;98375.00;;;21.78;73.13
46007;BME280;31738;50.188;8.524;2022-08-19T00:35:49;98366.81;;;21.78;73.56
46007;BME280;31738;50.188;8.524;2022-08-19T00:38:14;98375.00;;;21.78;73.83
46007;BME280;31738;50.188;8.524;2022-08-19T00:40:43;98364.09;;;21.78;73.55
46007;BME280;31738;50.188;8.524;2022-08-19T00:43:12;98362.50;;;21.77;73.31
46007;BME280;31738;50.188;8.524;2022-08-19T00:45:39;98358.63;;;21.78;72.71
46007;BME280;31738;50.188;8.524;2022-08-19T00:48:06;98343.84;;;21.79;73.06
46007;BME280;31738;50.188;8.524;2022-08-19T00:50:33;98352.44;;;21.81;73.23
46007;BME280;31738;50.188;8.524;2022-08-19T00:53:00;98355.63;;;21.83;72.89
46007;BME280;31738;50.188;8.524;2022-08-19T00:55:30;98354.06;;;21.82;72.75
46007;BME280;31738;50.188;8.524;2022-08-19T00:58:07;98353.59;;;21.80;72.50
46007;BME280;31738;50.188;8.524;2022-08-19T01:00:35;98352.44;;;21.81;72.46
46007;BME280;31738;50.188;8.524;2022-08-19T01:03:04;98345.16;;;21.85;72.61
46007;BME280;31738;50.188;8.524;2022-08-19T01:05:30;98342.41;;;21.85;72.59
46007;BME280;31738;50.188;8.524;2022-08-19T01:07:58;98339.31;;;21.87;72.74
46007;BME280;31738;50.188;8.524;2022-08-19T01:10:27;98328.03;;;21.88;72.70
46007;BME280;31738;50.188;8.524;2022-08-19T01:12:55;98334.63;;;21.87;72.66
46007;BME280;31738;50.188;8.524;2022-08-19T01:15:29;98332.72;;;21.88;72.55
46007;BME280;31738;50.188;8.524;2022-08-19T01:17:57;98322.16;;;21.86;72.52
46007;BME280;31738;50.188;8.524;2022-08-19T01:20:24;98329.88;;;21.84;72.69
46007;BME280;31738;50.188;8.524;2022-08-19T01:22:53;98327.59;;;21.86;72.77
46007;BME280;31738;50.188;8.524;2022-08-19T01:25:22;98320.56;;;21.85;72.82
46007;BME280;31738;50.188;8.524;2022-08-19T01:27:50;98330.34;;;21.86;72.94
46007;BME280;31738;50.188;8.524;2022-08-19T01:30:23;98331.13;;;21.87;73.09
46007;BME280;31738;50.188;8.524;2022-08-19T01:32:50;98329.88;;;21.84;73.00
46007;BME280;31738;50.188;8.524;2022-08-19T01:35:16;98329.53;;;21.86;73.10
46007;BME280;31738;50.188;8.524;2022-08-19T01:37:52;98327.59;;;21.86;73.00
46007;BME280;31738;50.188;8.524;2022-08-19T01:40:19;98325.59;;;21.83;73.57
46007;BME280;31738;50.188;8.524;2022-08-19T01:42:49;98322.84;;;21.83;73.24
46007;BME280;31738;50.188;8.524;2022-08-19T01:45:16;98317.41;;;21.83;73.28
46007;BME280;31738;50.188;8.524;2022-08-19T01:47:41;98309.19;;;21.83;73.38
46007;BME280;31738;50.188;8.524;2022-08-19T01:50:08;98316.69;;;21.86;73.75
46007;BME280;31738;50.188;8.524;2022-08-19T01:52:37;98322.16;;;21.86;73.63
46007;BME280;31738;50.188;8.524;2022-08-19T01:55:04;98327.59;;;21.86;73.30
46007;BME280;31738;50.188;8.524;2022-08-19T01:57:30;98328.31;;;21.83;74.07
46007;BME280;31738;50.188;8.524;2022-08-19T01:59:56;98327.50;;;21.83;73.85
46007;BME280;31738;50.188;8.524;2022-08-19T02:02:22;98332.22;;;21.82;74.26
46007;BME280;31738;50.188;8.524;2022-08-19T02:04:47;98323.56;;;21.80;74.19
46007;BME280;31738;50.188;8.524;2022-08-19T02:07:13;98325.94;;;21.82;74.60
46007;BME280;31738;50.188;8.524;2022-08-19T02:09:39;98323.56;;;21.80;74.81
46007;BME280;31738;50.188;8.524;2022-08-19T02:12:05;98334.50;;;21.80;74.71
46007;BME280;31738;50.188;8.524;2022-08-19T02:14:34;98336.06;;;21.81;75.09
46007;BME280;31738;50.188;8.524;2022-08-19T02:16:59;98336.78;;;21.78;74.90
46007;BME280;31738;50.188;8.524;2022-08-19T02:19:25;98337.94;;;21.77;75.31
46007;BME280;31738;50.188;8.524;2022-08-19T02:21:51;98321.91;;;21.76;75.58
46007;BME280;31738;50.188;8.524;2022-08-19T02:24:16;98329.75;;;21.77;75.49
46007;BME280;31738;50.188;8.524;2022-08-19T02:26:42;98328.16;;;21.76;75.89
46007;BME280;31738;50.188;8.524;2022-08-19T02:29:09;98342.94;;;21.75;75.77
46007;BME280;31738;50.188;8.524;2022-08-19T02:31:34;98342.06;;;21.71;76.21
46007;BME280;31738;50.188;8.524;2022-08-19T02:34:00;98342.06;;;21.71;75.89
46007;BME280;31738;50.188;8.524;2022-08-19T02:36:26;98331.84;;;21.68;76.44
46007;BME280;31738;50.188;8.524;2022-08-19T02:38:54;98330.28;;;21.67;76.62
46007;BME280;31738;50.188;8.524;2022-08-19T02:41:26;98320.13;;;21.68;76.26
46007;BME280;31738;50.188;8.524;2022-08-19T02:43:54;98323.56;;;21.65;76.54
46007;BME280;31738;50.188;8.524;2022-08-19T02:46:24;98323.56;;;21.65;76.99
46007;BME280;31738;50.188;8.524;2022-08-19T02:48:52;98316.53;;;21.64;76.69
46007;BME280;31738;50.188;8.524;2022-08-19T02:51:20;98311.06;;;21.64;76.94
46007;BME280;31738;50.188;8.524;2022-08-19T02:53:46;98322.34;;;21.62;77.34
46007;BME280;31738;50.188;8.524;2022-08-19T02:56:11;98315.28;;;21.61;77.19
46007;BME280;31738;50.188;8.524;2022-08-19T02:58:37;98305.53;;;21.60;77.41
46007;BME280;31738;50.188;8.524;2022-08-19T03:01:03;98310.53;;;21.58;77.46
46007;BME280;31738;50.188;8.524;2022-08-19T03:03:28;98318.72;;;21.58;77.94
46007;BME280;31738;50.188;8.524;2022-08-19T03:06:13;98326.06;;;21.54;77.38
46007;BME280;31738;50.188;8.524;2022-08-19T03:08:41;98331.97;;;21.56;77.57
46007;BME280;31738;50.188;8.524;2022-08-19T03:11:13;98318.66;;;21.55;77.78
46007;BME280;31738;50.188;8.524;2022-08-19T03:13:39;98309.69;;;21.54;77.58
46007;BME280;31738;50.188;8.524;2022-08-19T03:16:05;98305.03;;;21.55;77.25
46007;BME280;31738;50.188;8.524;2022-08-19T03:18:30;98299.56;;;21.55;77.63
46007;BME280;31738;50.188;8.524;2022-08-19T03:20:56;98310.47;;;21.55;77.62
46007;BME280;31738;50.188;8.524;2022-08-19T03:23:22;98314.78;;;21.56;77.33
46007;BME280;31738;50.188;8.524;2022-08-19T03:25:52;98318.31;;;21.56;77.29
46007;BME280;31738;50.188;8.524;2022-08-19T03:28:18;98327.63;;;21.55;77.52
46007;BME280;31738;50.188;8.524;2022-08-19T03:30:59;98310.84;;;21.53;77.07
46007;BME280;31738;50.188;8.524;2022-08-19T03:33:25;98315.84;;;21.51;77.64
46007;BME280;31738;50.188;8.524;2022-08-19T03:38:27;98331.44;;;21.51;77.31
46007;BME280;31738;50.188;8.524;2022-08-19T03:40:53;98327.13;;;21.50;77.13
46007;BME280;31738;50.188;8.524;2022-08-19T03:43:18;98327.47;;;21.48;77.41
46007;BME280;31738;50.188;8.524;2022-08-19T03:45:44;98324.75;;;21.48;77.34
46007;BME280;31738;50.188;8.524;2022-08-19T03:48:09;98328.19;;;21.45;77.13
46007;BME280;31738;50.188;8.524;2022-08-19T03:50:39;98329.75;;;21.46;77.07
46007;BME280;31738;50.188;8.524;2022-08-19T03:53:05;98336.38;;;21.45;77.12
46007;BME280;31738;50.188;8.524;2022-08-19T03:55:31;98337.53;;;21.44;77.18
46007;BME280;31738;50.188;8.524;2022-08-19T03:57:56;98331.63;;;21.42;77.23
46007;BME280;31738;50.188;8.524;2022-08-19T04:00:22;98341.03;;;21.45;76.87
46007;BME280;31738;50.188;8.524;2022-08-19T04:02:47;98338.66;;;21.43;76.91
46007;BME280;31738;50.188;8.524;2022-08-19T04:05:13;98335.94;;;21.43;76.64
46007;BME280;31738;50.188;8.524;2022-08-19T04:07:39;98339.81;;;21.42;76.67
46007;BME280;31738;50.188;8.524;2022-08-19T04:10:05;98338.25;;;21.41;76.44
46007;BME280;31738;50.188;8.524;2022-08-19T04:12:30;98346.06;;;21.43;76.34
46007;BME280;31738;50.188;8.524;2022-08-19T04:14:56;98350.72;;;21.42;76.48
46007;BME280;31738;50.188;8.524;2022-08-19T04:17:21;98347.19;;;21.42;76.54
46007;BME280;31738;50.188;8.524;2022-08-19T04:19:47;98339.00;;;21.42;76.26
46007;BME280;31738;50.188;8.524;2022-08-19T04:22:12;98342.09;;;21.40;76.35
46007;BME280;31738;50.188;8.524;2022-08-19T04:24:38;98349.88;;;21.38;75.44
46007;BME280;31738;50.188;8.524;2022-08-19T04:27:04;98350.63;;;21.39;76.51
46007;BME280;31738;50.188;8.524;2022-08-19T04:29:31;98347.13;;;21.38;75.93
46007;BME280;31738;50.188;8.524;2022-08-19T04:31:58;98343.25;;;21.39;75.74
46007;BME280;31738;50.188;8.524;2022-08-19T04:34:26;98349.88;;;21.38;76.18
46007;BME280;31738;50.188;8.524;2022-08-19T04:36:56;98349.06;;;21.38;76.03
46007;BME280;31738;50.188;8.524;2022-08-19T04:39:25;98344.41;;;21.38;75.69
46007;BME280;31738;50.188;8.524;2022-08-19T04:42:11;98349.31;;;21.33;75.85
46007;BME280;31738;50.188;8.524;2022-08-19T04:44:56;98353.09;;;21.28;75.99
46007;BME280;31738;50.188;8.524;2022-08-19T04:47:22;98355.13;;;21.31;75.88
46007;BME280;31738;50.188;8.524;2022-08-19T04:49:47;98359.44;;;21.32;75.92
46007;BME280;31738;50.188;8.524;2022-08-19T04:52:14;98362.97;;;21.33;75.78
46007;BME280;31738;50.188;8.524;2022-08-19T04:54:39;98365.34;;;21.34;75.93
46007;BME280;31738;50.188;8.524;2022-08-19T04:57:06;98356.81;;;21.36;75.72
46007;BME280;31738;50.188;8.524;2022-08-19T04:59:35;98361.47;;;21.35;75.39
46007;BME280;31738;50.188;8.524;2022-08-19T05:02:01;98368.88;;;21.35;75.62
46007;BME280;31738;50.188;8.524;2022-08-19T05:04:29;98368.50;;;21.36;75.49
46007;BME280;31738;50.188;8.524;2022-08-19T05:06:56;98381.00;;;21.37;75.41
46007;BME280;31738;50.188;8.524;2022-08-19T05:09:21;98385.34;;;21.38;75.44
46007;BME280;31738;50.188;8.524;2022-08-19T05:11:47;98379.53;;;21.40;75.20
46007;BME280;31738;50.188;8.524;2022-08-19T05:14:13;98380.75;;;21.42;74.98
46007;BME280;31738;50.188;8.524;2022-08-19T05:16:39;98387.44;;;21.45;75.57
46007;BME280;31738;50.188;8.524;2022-08-19T05:19:05;98388.22;;;21.45;74.61
46007;BME280;31738;50.188;8.524;2022-08-19T05:21:49;98385.94;;;21.47;74.67
46007;BME280;31738;50.188;8.524;2022-08-19T05:24:33;98379.69;;;21.47;74.81
46007;BME280;31738;50.188;8.524;2022-08-19T05:27:00;98376.72;;;21.52;74.38
46007;BME280;31738;50.188;8.524;2022-08-19T05:29:29;98382.22;;;21.55;74.58
46007;BME280;31738;50.188;8.524;2022-08-19T05:31:57;98383.47;;;21.58;74.00
46007;BME280;31738;50.188;8.524;2022-08-19T05:34:24;98385.59;;;21.64;74.16
46007;BME280;31738;50.188;8.524;2022-08-19T05:36:54;98381.00;;;21.68;73.92
46007;BME280;31738;50.188;8.524;2022-08-19T05:39:24;98397.13;;;21.73;74.10
46007;BME280;31738;50.188;8.524;2022-08-19T05:41:57;98386.72;;;21.79;73.52
46007;BME280;31738;50.188;8.524;2022-08-19T05:44:24;98391.50;;;21.82;73.15
46007;BME280;31738;50.188;8.524;2022-08-19T05:46:51;98398.16;;;21.84;73.15
46007;BME280;31738;50.188;8.524;2022-08-19T05:49:22;98397.91;;;21.89;73.61
46007;BME280;31738;50.188;8.524;2022-08-19T05:51:49;98405.84;;;21.94;73.25
46007;BME280;31738;50.188;8.524;2022-08-19T05:54:14;98409.44;;;21.98;72.65
46007;BME280;31738;50.188;8.524;2022-08-19T05:56:41;98405.97;;;22.02;72.77
46007;BME280;31738;50.188;8.524;2022-08-19T05:59:09;98400.69;;;22.09;72.30
46007;BME280;31738;50.188;8.524;2022-08-19T06:01:40;98421.84;;;22.12;72.44
46007;BME280;31738;50.188;8.524;2022-08-19T06:04:07;98425.78;;;22.14;71.75
46007;BME280;31738;50.188;8.524;2022-08-19T06:06:33;98437.59;;;22.18;71.35
46007;BME280;31738;50.188;8.524;2022-08-19T06:09:06;98435.66;;;22.19;71.01
46007;BME280;31738;50.188;8.524;2022-08-19T06:11:41;98446.66;;;22.22;70.91
46007;BME280;31738;50.188;8.524;2022-08-19T06:14:11;98445.16;;;22.25;71.10
46007;BME280;31738;50.188;8.524;2022-08-19T06:16:39;98447.97;;;22.28;70.92
46007;BME280;31738;50.188;8.524;2022-08-19T06:19:08;98448.84;;;22.32;70.83
46007;BME280;31738;50.188;8.524;2022-08-19T06:21:36;98446.19;;;22.36;70.44
46007;BME280;31738;50.188;8.524;2022-08-19T06:24:04;98453.69;;;22.39;70.42
46007;BME280;31738;50.188;8.524;2022-08-19T06:26:30;98467.78;;;22.41;69.70
46007;BME280;31738;50.188;8.524;2022-08-19T06:28:56;98476.41;;;22.43;69.71
46007;BME280;31738;50.188;8.524;2022-08-19T06:31:27;98483.47;;;22.44;68.98
46007;BME280;31738;50.188;8.524;2022-08-19T06:33:53;98475.28;;;22.44;69.64
46007;BME280;31738;50.188;8.524;2022-08-19T06:38:49;98494.84;;;22.46;69.68
46007;BME280;31738;50.188;8.524;2022-08-19T06:41:15;98494.91;;;22.49;69.33
46007;BME280;31738;50.188;8.524;2022-08-19T06:43:40;98495.38;;;22.51;69.76
46007;BME280;31738;50.188;8.524;2022-08-19T06:46:15;98498.63;;;22.57;69.47
46007;BME280;31738;50.188;8.524;2022-08-19T06:48:41;98502.25;;;22.61;69.06
46007;BME280;31738;50.188;8.524;2022-08-19T06:51:07;98514.50;;;22.67;69.28
46007;BME280;31738;50.188;8.524;2022-08-19T06:53:33;98500.53;;;22.72;69.34
46007;BME280;31738;50.188;8.524;2022-08-19T06:55:59;98511.19;;;22.77;69.10
46007;BME280;31738;50.188;8.524;2022-08-19T06:58:29;98489.81;;;22.82;68.92
46007;BME280;31738;50.188;8.524;2022-08-19T07:00:59;98497.72;;;22.87;68.65
46007;BME280;31738;50.188;8.524;2022-08-19T07:03:28;98505.28;;;22.94;67.97
46007;BME280;31738;50.188;8.524;2022-08-19T07:05:54;98512.78;;;22.97;67.75
46007;BME280;31738;50.188;8.524;2022-08-19T07:08:19;98522.28;;;23.03;67.84
46007;BME280;31738;50.188;8.524;2022-08-19T07:10:46;98523.56;;;23.09;67.18
46007;BME280;31738;50.188;8.524;2022-08-19T07:13:11;98516.16;;;23.09;67.54
46007;BME280;31738;50.188;8.524;2022-08-19T07:15:37;98518.63;;;23.14;67.17
46007;BME280;31738;50.188;8.524;2022-08-19T07:18:03;98527.31;;;23.20;66.99
46007;BME280;31738;50.188;8.524;2022-08-19T07:20:28;98523.88;;;23.23;66.76
46007;BME280;31738;50.188;8.524;2022-08-19T07:22:54;98527.50;;;23.27;66.59
46007;BME280;31738;50.188;8.524;2022-08-19T07:25:19;98526.91;;;23.37;66.91
46007;BME280;31738;50.188;8.524;2022-08-19T07:27:49;98531.78;;;23.47;66.32
46007;BME280;31738;50.188;8.524;2022-08-19T07:30:16;98540.63;;;23.59;65.67
46007;BME280;31738;50.188;8.524;2022-08-19T07:32:42;98552.47;;;23.64;65.70
46007;BME280;31738;50.188;8.524;2022-08-19T07:35:08;98551.88;;;23.74;65.58
46007;BME280;31738;50.188;8.524;2022-08-19T07:37:35;98547.22;;;23.78;64.66
46007;BME280;31738;50.188;8.524;2022-08-19T07:40:04;98552.66;;;23.74;64.11
46007;BME280;31738;50.188;8.524;2022-08-19T07:42:30;98550.34;;;23.76;63.85
46007;BME280;31738;50.188;8.524;2022-08-19T07:44:55;98540.31;;;23.84;64.58
46007;BME280;31738;50.188;8.524;2022-08-19T07:47:21;98543.53;;;23.89;64.79
46007;BME280;31738;50.188;8.524;2022-08-19T07:49:47;98557.81;;;23.98;63.89
46007;BME280;31738;50.188;8.524;2022-08-19T07:52:13;98559.53;;;24.06;63.75
46007;BME280;31738;50.188;8.524;2022-08-19T07:54:39;98561.97;;;24.11;63.34
46007;BME280;31738;50.188;8.524;2022-08-19T07:57:06;98559.69;;;24.17;63.47
46007;BME280;31738;50.188;8.524;2022-08-19T07:59:32;98564.81;;;24.18;62.83
46007;BME280;31738;50.188;8.524;2022-08-19T08:01:58;98568.75;;;24.21;62.97
46007;BME280;31738;50.188;8.524;2022-08-19T08:04:26;98574.75;;;24.26;62.28
46007;BME280;31738;50.188;8.524;2022-08-19T08:07:10;98582.59;;;24.28;61.78
46007;BME280;31738;50.188;8.524;2022-08-19T08:09:55;98586.56;;;24.30;62.08
46007;BME280;31738;50.188;8.524;2022-08-19T08:12:27;98583.50;;;24.35;61.96
46007;BME280;31738;50.188;8.524;2022-08-19T08:14:57;98599.31;;;24.42;61.36
46007;BME280;31738;50.188;8.524;2022-08-19T08:17:25;98594.72;;;24.49;60.87
46007;BME280;31738;50.188;8.524;2022-08-19T08:19:51;98606.09;;;24.51;60.92
46007;BME280;31738;50.188;8.524;2022-08-19T08:22:19;98603.84;;;24.57;61.14
46007;BME280;31738;50.188;8.524;2022-08-19T08:25:11;98607.25;;;24.50;60.69
46007;BME280;31738;50.188;8.524;2022-08-19T08:27:39;98605.69;;;24.49;60.65
46007;BME280;31738;50.188;8.524;2022-08-19T08:30:19;98601.47;;;24.55;61.04
46007;BME280;31738;50.188;8.524;2022-08-19T08:32:45;98604.50;;;24.73;60.62
46007;BME280;31738;50.188;8.524;2022-08-19T08:35:18;98612.59;;;24.88;60.37
46007;BME280;31738;50.188;8.524;2022-08-19T08:37:46;98612.72;;;24.99;60.33
46007;BME280;31738;50.188;8.524;2022-08-19T08:40:20;98620.72;;;25.07;59.40
46007;BME280;31738;50.188;8.524;2022-08-19T08:42:54;98632.00;;;25.02;58.67
46007;BME280;31738;50.188;8.524;2022-08-19T08:45:24;98619.03;;;24.99;60.02
46007;BME280;31738;50.188;8.524;2022-08-19T08:47:52;98630.75;;;24.96;59.37
46007;BME280;31738;50.188;8.524;2022-08-19T08:50:39;98624.81;;;24.94;59.41
46007;BME280;31738;50.188;8.524;2022-08-19T08:53:08;98623.91;;;25.13;60.02
46007;BME280;31738;50.188;8.524;2022-08-19T08:55:34;98637.91;;;25.31;59.42
46007;BME280;31738;50.188;8.524;2022-08-19T08:58:12;98640.88;;;25.45;58.55
46007;BME280;31738;50.188;8.524;2022-08-19T09:00:45;98644.88;;;25.51;58.45
46007;BME280;31738;50.188;8.524;2022-08-19T09:03:20;98643.25;;;25.46;57.78
46007;BME280;31738;50.188;8.524;2022-08-19T09:06:00;98633.69;;;25.37;58.34
46007;BME280;31738;50.188;8.524;2022-08-19T09:08:36;98647.28;;;25.30;58.37
46007;BME280;31738;50.188;8.524;2022-08-19T09:11:08;98645.63;;;25.22;59.13
46007;BME280;31738;50.188;8.524;2022-08-19T09:13:45;98643.50;;;25.11;58.72
46007;BME280;31738;50.188;8.524;2022-08-19T09:16:19;98642.75;;;25.14;58.92
46007;BME280;31738;50.188;8.524;2022-08-19T09:18:49;98631.34;;;25.39;58.06
46007;BME280;31738;50.188;8.524;2022-08-19T09:21:17;98628.03;;;25.56;57.30
46007;BME280;31738;50.188;8.524;2022-08-19T09:23:43;98626.31;;;25.74;57.45
46007;BME280;31738;50.188;8.524;2022-08-19T09:26:15;98627.38;;;25.99;56.20
46007;BME280;31738;50.188;8.524;2022-08-19T09:28:42;98632.13;;;26.02;55.85
46007;BME280;31738;50.188;8.524;2022-08-19T09:31:16;98632.81;;;25.95;54.59
46007;BME280;31738;50.188;8.524;2022-08-19T09:33:42;98640.28;;;25.95;54.76
46007;BME280;31738;50.188;8.524;2022-08-19T09:36:13;98636.72;;;25.94;54.17
46007;BME280;31738;50.188;8.524;2022-08-19T09:38:40;98630.56;;;26.01;54.71
46007;BME280;31738;50.188;8.524;2022-08-19T09:41:08;98644.03;;;26.13;53.84
46007;BME280;31738;50.188;8.524;2022-08-19T09:43:35;98643.22;;;26.09;54.05
46007;BME280;31738;50.188;8.524;2022-08-19T09:46:03;98643.31;;;26.19;52.92
46007;BME280;31738;50.188;8.524;2022-08-19T09:48:31;98649.25;;;26.25;52.96
46007;BME280;31738;50.188;8.524;2022-08-19T09:51:05;98655.25;;;26.37;52.03
46007;BME280;31738;50.188;8.524;2022-08-19T09:53:34;98658.50;;;26.46;52.39
46007;BME280;31738;50.188;8.524;2022-08-19T09:56:00;98656.19;;;26.52;51.91
46007;BME280;31738;50.188;8.524;2022-08-19T09:58:26;98656.41;;;26.73;51.79
46007;BME280;31738;50.188;8.524;2022-08-19T10:00:54;98653.31;;;26.82;51.48
46007;BME280;31738;50.188;8.524;2022-08-19T10:03:20;98652.91;;;26.83;51.82
46007;BME280;31738;50.188;8.524;2022-08-19T10:05:45;98655.81;;;27.01;50.83
46007;BME280;31738;50.188;8.524;2022-08-19T10:08:15;98653.56;;;27.20;51.40
46007;BME280;31738;50.188;8.524;2022-08-19T10:10:41;98647.72;;;27.29;50.30
46007;BME280;31738;50.188;8.524;2022-08-19T10:13:08;98657.56;;;27.26;50.25
46007;BME280;31738;50.188;8.524;2022-08-19T10:15:34;98662.25;;;27.22;50.07
46007;BME280;31738;50.188;8.524;2022-08-19T10:18:00;98661.53;;;27.32;49.63
46007;BME280;31738;50.188;8.524;2022-08-19T10:20:25;98655.25;;;27.32;49.44
46007;BME280;31738;50.188;8.524;2022-08-19T10:22:50;98662.34;;;27.33;49.49
46007;BME280;31738;50.188;8.524;2022-08-19T10:25:16;98661.16;;;27.34;50.15
46007;BME280;31738;50.188;8.524;2022-08-19T10:27:42;98673.34;;;27.29;49.10
46007;BME280;31738;50.188;8.524;2022-08-19T10:30:08;98666.19;;;27.25;49.61
46007;BME280;31738;50.188;8.524;2022-08-19T10:32:34;98658.41;;;27.37;49.13
46007;BME280;31738;50.188;8.524;2022-08-19T10:35:01;98659.28;;;27.55;49.01
46007;BME280;31738;50.188;8.524;2022-08-19T10:37:27;98668.03;;;27.71;48.67
46007;BME280;31738;50.188;8.524;2022-08-19T10:39:55;98675.13;;;27.79;48.17
46007;BME280;31738;50.188;8.524;2022-08-19T10:42:21;98686.91;;;27.62;47.46
46007;BME280;31738;50.188;8.524;2022-08-19T10:44:46;98690.31;;;27.38;48.27
46007;BME280;31738;50.188;8.524;2022-08-19T10:47:12;98691.44;;;27.27;47.58
46007;BME280;31738;50.188;8.524;2022-08-19T10:49:37;98680.34;;;27.23;48.25
46007;BME280;31738;50.188;8.524;2022-08-19T10:52:23;98680.56;;;27.51;47.15
46007;BME280;31738;50.188;8.524;2022-08-19T10:55:02;98680.66;;;27.79;46.88
46007;BME280;31738;50.188;8.524;2022-08-19T10:57:47;98686.97;;;27.80;46.44
46007;BME280;31738;50.188;8.524;2022-08-19T11:00:13;98690.47;;;27.66;46.75
46007;BME280;31738;50.188;8.524;2022-08-19T11:02:39;98674.66;;;27.56;46.54
46007;BME280;31738;50.188;8.524;2022-08-19T11:05:06;98671.19;;;27.77;46.76
46007;BME280;31738;50.188;8.524;2022-08-19T11:07:32;98667.41;;;28.09;46.67
46007;BME280;31738;50.188;8.524;2022-08-19T11:09:57;98665.84;;;28.33;45.90
46007;BME280;31738;50.188;8.524;2022-08-19T11:12:23;98672.22;;;28.48;44.96
46007;BME280;31738;50.188;8.524;2022-08-19T11:14:49;98666.69;;;28.55;44.61
46007;BME280;31738;50.188;8.524;2022-08-19T11:17:15;98665.13;;;28.54;45.36
46007;BME280;31738;50.188;8.524;2022-08-19T11:19:41;98665.13;;;28.54;45.36
46007;BME280;31738;50.188;8.524;2022-08-19T11:22:10;98687.13;;;28.25;44.23
46007;BME280;31738;50.188;8.524;2022-08-19T11:24:35;98678.38;;;27.88;45.25
46007;BME280;31738;50.188;8.524;2022-08-19T11:27:04;98672.09;;;27.98;45.64
46007;BME280;31738;50.188;8.524;2022-08-19T11:29:31;98655.59;;;28.30;45.32
46007;BME280;31738;50.188;8.524;2022-08-19T11:31:57;98648.56;;;28.68;44.40
46007;BME280;31738;50.188;8.524;2022-08-19T11:34:25;98654.88;;;28.93;43.37
46007;BME280;31738;50.188;8.524;2022-08-19T11:36:53;98667.53;;;28.73;43.26
46007;BME280;31738;50.188;8.524;2022-08-19T11:39:21;98666.66;;;28.30;42.98
46007;BME280;31738;50.188;8.524;2022-08-19T11:41:47;98652.84;;;28.19;43.58
46007;BME280;31738;50.188;8.524;2022-08-19T11:44:12;98647.75;;;28.39;43.36
46007;BME280;31738;50.188;8.524;2022-08-19T11:46:41;98640.28;;;28.64;42.81
46007;BME280;31738;50.188;8.524;2022-08-19T11:49:11;98646.59;;;28.72;42.90
46007;BME280;31738;50.188;8.524;2022-08-19T11:51:37;98632.38;;;28.84;42.53
46007;BME280;31738;50.188;8.524;2022-08-19T11:54:04;98645.81;;;29.06;41.91
46007;BME280;31738;50.188;8.524;2022-08-19T11:56:31;98658.81;;;29.20;40.63
46007;BME280;31738;50.188;8.524;2022-08-19T11:58:57;98654.06;;;29.10;40.90
46007;BME280;31738;50.188;8.524;2022-08-19T12:01:24;98653.28;;;29.02;40.81
46007;BME280;31738;50.188;8.524;2022-08-19T12:03:52;98665.94;;;28.79;41.26
46007;BME280;31738;50.188;8.524;2022-08-19T12:06:21;98662.38;;;28.85;41.21
46007;BME280;31738;50.188;8.524;2022-08-19T12:08:51;98666.31;;;29.02;41.47
46007;BME280;31738;50.188;8.524;2022-08-19T12:11:17;98678.53;;;28.90;40.82
46007;BME280;31738;50.188;8.524;2022-08-19T12:13:43;98675.78;;;28.76;40.99
46007;BME280;31738;50.188;8.524;2022-08-19T12:16:16;98673.81;;;28.91;40.87
46007;BME280;31738;50.188;8.524;2022-08-19T12:18:43;98682.50;;;28.96;40.08
46007;BME280;31738;50.188;8.524;2022-08-19T12:21:16;98679.34;;;28.73;39.75
46007;BME280;31738;50.188;8.524;2022-08-19T12:23:43;98680.13;;;28.56;40.66
46007;BME280;31738;50.188;8.524;2022-08-19T12:26:11;98674.59;;;28.56;41.07
46007;BME280;31738;50.188;8.524;2022-08-19T12:28:36;98669.09;;;28.74;40.52
46007;BME280;31738;50.188;8.524;2022-08-19T12:31:02;98660.41;;;28.93;40.46
46007;BME280;31738;50.188;8.524;2022-08-19T12:33:28;98654.88;;;29.00;40.03
46007;BME280;31738;50.188;8.524;2022-08-19T12:35:54;98677.34;;;28.95;40.48
46007;BME280;31738;50.188;8.524;2022-08-19T12:38:20;98668.28;;;28.87;40.11
46007;BME280;31738;50.188;8.524;2022-08-19T12:40:49;98661.19;;;28.90;40.44
46007;BME280;31738;50.188;8.524;2022-08-19T12:43:17;98660.78;;;29.02;40.47
46007;BME280;31738;50.188;8.524;2022-08-19T12:45:43;98661.97;;;29.15;39.66
46007;BME280;31738;50.188;8.524;2022-08-19T12:48:10;98650.50;;;29.27;39.38
46007;BME280;31738;50.188;8.524;2022-08-19T12:50:36;98661.09;;;29.49;39.19
46007;BME280;31738;50.188;8.524;2022-08-19T12:53:03;98658.72;;;29.55;38.99
46007;BME280;31738;50.188;8.524;2022-08-19T12:55:29;98669.81;;;29.41;39.42
46007;BME280;31738;50.188;8.524;2022-08-19T12:57:55;98657.25;;;29.08;39.52
46007;BME280;31738;50.188;8.524;2022-08-19T13:00:22;98663.16;;;28.82;39.71
46007;BME280;31738;50.188;8.524;2022-08-19T13:02:50;98660.41;;;28.58;39.85
46007;BME280;31738;50.188;8.524;2022-08-19T13:05:19;98653.31;;;28.50;40.17
46007;BME280;31738;50.188;8.524;2022-08-19T13:07:46;98647.00;;;28.60;39.76
46007;BME280;31738;50.188;8.524;2022-08-19T13:10:13;98643.84;;;28.68;40.05